createdAt,value
2024-02-01T00:01:25.718Z,68.42
2024-02-01T00:03:54.078Z,68.32
2024-02-01T00:06:22.667Z,68.74
2024-02-01T00:08:50.984Z,68.52
2024-02-01T00:11:19.430Z,68.44
2024-02-01T00:13:48.045Z,68.08
2024-02-01T00:16:23.394Z,68.21
2024-02-01T00:18:51.879Z,69.24
2024-02-01T00:21:20.343Z,69.07
2024-02-01T00:23:48.935Z,68.76
2024-02-01T00:26:17.314Z,68.56
2024-02-01T00:28:45.741Z,68.86
2024-02-01T00:31:14.096Z,68.86
2024-02-01T00:33:42.783Z,68.20
2024-02-01T00:36:11.604Z,68.76
2024-02-01T00:38:40.061Z,69.55
2024-02-01T00:41:08.429Z,69.41
2024-02-01T00:43:36.811Z,68.69
2024-02-01T00:46:05.121Z,68.63
2024-02-01T00:48:34.232Z,69.63
2024-02-01T00:51:02.609Z,69.44
2024-02-01T00:53:30.941Z,68.71
2024-02-01T00:55:59.830Z,68.60
2024-02-01T00:58:28.169Z,68.94
2024-02-01T01:00:56.807Z,68.20
2024-02-01T01:03:25.286Z,68.89
2024-02-01T01:05:53.763Z,68.23
2024-02-01T01:08:22.058Z,68.24
2024-02-01T01:10:50.566Z,68.19
2024-02-01T01:13:18.900Z,68.62
2024-02-01T01:15:47.221Z,68.76
2024-02-01T01:18:15.719Z,68.88
2024-02-01T01:20:44.658Z,68.92
2024-02-01T01:23:13.075Z,69.41
2024-02-01T01:25:41.540Z,68.84
2024-02-01T01:28:10.029Z,68.91
2024-02-01T01:30:38.437Z,69.11
2024-02-01T01:33:06.826Z,69.35
2024-02-01T01:35:35.261Z,69.32
2024-02-01T01:38:03.940Z,68.42
2024-02-01T01:40:32.225Z,68.34
2024-02-01T01:43:00.667Z,69.16
2024-02-01T01:45:29.364Z,68.94
2024-02-01T01:47:58.643Z,69.09
2024-02-01T01:50:27.329Z,69.12
2024-02-01T01:52:58.517Z,69.57
2024-02-01T01:55:29.508Z,69.06
2024-02-01T01:57:58.324Z,68.84
2024-02-01T02:00:28.080Z,68.34
2024-02-01T02:02:57.308Z,68.79
2024-02-01T02:05:27.144Z,68.64
2024-02-01T02:07:55.501Z,68.27
2024-02-01T02:10:23.880Z,68.44
2024-02-01T02:12:52.199Z,70.00
2024-02-01T02:15:23.193Z,70.34
2024-02-01T02:17:52.343Z,70.84
2024-02-01T02:20:22.253Z,69.36
2024-02-01T02:22:54.254Z,69.11
2024-02-01T02:25:22.940Z,69.41
2024-02-01T02:27:51.412Z,69.03
2024-02-01T02:30:20.101Z,69.03
2024-02-01T02:32:49.251Z,69.41
2024-02-01T02:35:18.216Z,69.15
2024-02-01T02:37:53.296Z,69.18
2024-02-01T02:40:23.162Z,70.75
2024-02-01T02:42:51.957Z,73.20
2024-02-01T02:45:21.012Z,74.17
2024-02-01T02:47:50.227Z,73.46
2024-02-01T02:50:19.125Z,72.56
2024-02-01T02:52:47.586Z,72.97
2024-02-01T02:55:16.027Z,73.76
2024-02-01T02:57:44.562Z,74.26
2024-02-01T03:00:20.480Z,72.48
2024-02-01T03:02:50.098Z,72.48
2024-02-01T03:05:19.195Z,73.82
2024-02-01T03:07:47.732Z,72.96
2024-02-01T03:10:17.200Z,72.37
2024-02-01T03:12:45.671Z,71.87
2024-02-01T03:15:14.141Z,71.36
2024-02-01T03:17:42.908Z,70.86
2024-02-01T03:20:19.419Z,70.77
2024-02-01T03:22:48.110Z,70.28
2024-02-01T03:25:16.577Z,70.15
2024-02-01T03:27:45.164Z,69.65
2024-02-01T03:30:13.915Z,69.66
2024-02-01T03:32:43.036Z,69.36
2024-02-01T03:35:11.650Z,68.93
2024-02-01T03:37:41.913Z,68.87
2024-02-01T03:40:14.324Z,69.09
2024-02-01T03:42:43.654Z,69.39
2024-02-01T03:45:13.238Z,69.50
2024-02-01T03:47:42.488Z,69.06
2024-02-01T03:50:11.323Z,68.60
2024-02-01T03:52:40.492Z,69.28
2024-02-01T03:55:17.672Z,69.28
2024-02-01T03:57:47.629Z,68.80
2024-02-01T04:00:26.689Z,68.88
2024-02-01T04:03:05.098Z,68.16
2024-02-01T04:05:38.185Z,68.14
2024-02-01T04:08:07.506Z,68.03
2024-02-01T04:10:37.548Z,68.26
2024-02-01T04:13:07.873Z,68.17
2024-02-01T04:15:37.069Z,67.49
2024-02-01T04:18:06.032Z,67.77
2024-02-01T04:20:35.342Z,67.95
2024-02-01T04:23:03.948Z,67.81
2024-02-01T04:25:32.265Z,68.39
2024-02-01T04:28:02.949Z,68.06
2024-02-01T04:30:31.195Z,68.30
2024-02-01T04:32:59.775Z,67.36
2024-02-01T04:35:29.793Z,67.37
2024-02-01T04:37:58.468Z,67.67
2024-02-01T04:40:27.229Z,67.83
2024-02-01T04:42:57.871Z,67.42
2024-02-01T04:45:26.479Z,67.73
2024-02-01T04:47:54.975Z,68.14
2024-02-01T04:50:24.195Z,67.24
2024-02-01T04:52:53.177Z,67.33
2024-02-01T04:55:22.696Z,67.47
2024-02-01T04:57:50.926Z,67.95
2024-02-01T05:00:19.840Z,67.94
2024-02-01T05:02:48.994Z,67.41
2024-02-01T05:05:18.934Z,67.90
2024-02-01T05:07:48.376Z,68.92
2024-02-01T05:10:16.781Z,69.89
2024-02-01T05:12:45.414Z,73.99
2024-02-01T05:15:14.587Z,80.00
2024-02-01T05:17:43.656Z,73.87
2024-02-01T05:20:13.579Z,70.89
2024-02-01T05:22:43.581Z,70.58
2024-02-01T05:25:20.501Z,69.47
2024-02-01T05:27:54.155Z,69.41
2024-02-01T05:30:24.533Z,69.72
2024-02-01T05:32:55.771Z,69.80
2024-02-01T05:35:35.345Z,70.30
2024-02-01T05:38:07.460Z,70.95
2024-02-01T05:40:38.849Z,71.86
2024-02-01T05:43:08.628Z,73.45
2024-02-01T05:45:37.042Z,70.71
2024-02-01T05:48:13.754Z,70.27
2024-02-01T05:50:42.443Z,71.37
2024-02-01T05:53:11.206Z,72.26
2024-02-01T05:55:39.848Z,70.59
2024-02-01T05:58:08.413Z,70.47
2024-02-01T06:00:39.302Z,70.17
2024-02-01T06:03:10.472Z,68.58
2024-02-01T06:05:39.122Z,67.11
2024-02-01T06:08:07.696Z,65.83
2024-02-01T06:10:35.968Z,65.02
2024-02-01T06:13:04.563Z,65.08
2024-02-01T06:15:34.598Z,65.27
2024-02-01T06:18:02.957Z,64.65
2024-02-01T06:20:31.668Z,64.73
2024-02-01T06:23:03.314Z,64.92
2024-02-01T06:25:32.031Z,65.11
2024-02-01T06:28:00.521Z,64.72
2024-02-01T06:30:29.862Z,64.88
2024-02-01T06:32:58.242Z,64.33
2024-02-01T06:35:26.656Z,64.88
2024-02-01T06:38:06.278Z,64.29
2024-02-01T06:40:39.657Z,64.37
2024-02-01T06:43:18.445Z,64.46
2024-02-01T06:45:49.634Z,64.36
2024-02-01T06:48:23.777Z,65.23
2024-02-01T06:51:11.754Z,65.04
2024-02-01T06:53:45.926Z,65.83
2024-02-01T06:56:29.892Z,66.21
2024-02-01T06:59:12.434Z,67.02
2024-02-01T07:01:53.296Z,66.58
2024-02-01T07:04:33.043Z,67.31
2024-02-01T07:07:19.672Z,68.57
2024-02-01T07:09:59.179Z,67.67
2024-02-01T07:12:45.111Z,67.59
2024-02-01T07:15:26.532Z,67.40
2024-02-01T07:18:05.160Z,67.39
2024-02-01T07:20:38.087Z,67.40
2024-02-01T07:23:22.653Z,68.18
2024-02-01T07:26:04.405Z,68.92
2024-02-01T07:28:51.678Z,69.33
2024-02-01T07:31:38.919Z,68.69
2024-02-01T07:34:26.010Z,70.10
2024-02-01T07:37:14.015Z,70.57
2024-02-01T07:40:01.176Z,72.47
2024-02-01T07:42:48.723Z,71.44
2024-02-01T07:45:35.755Z,70.94
2024-02-01T07:48:23.359Z,71.80
2024-02-01T07:51:10.868Z,71.11
2024-02-01T07:53:58.889Z,71.04
2024-02-01T07:56:45.768Z,72.27
2024-02-01T07:59:15.705Z,72.04
2024-02-01T08:02:03.805Z,71.12
2024-02-01T08:04:50.650Z,66.90
2024-02-01T08:07:37.632Z,66.57
2024-02-01T08:10:07.311Z,62.34
2024-02-01T08:12:36.305Z,59.07
2024-02-01T08:15:04.971Z,52.29
2024-02-01T08:17:33.745Z,49.75
2024-02-01T08:20:12.967Z,44.69
2024-02-01T08:22:43.053Z,45.15
2024-02-01T08:25:15.877Z,43.80
2024-02-01T08:27:54.402Z,41.08
2024-02-01T08:30:28.522Z,38.65
2024-02-01T08:33:04.982Z,37.84
2024-02-01T08:35:35.367Z,37.90
2024-02-01T08:38:05.759Z,38.76
2024-02-01T08:40:35.179Z,35.93
2024-02-01T08:43:03.641Z,36.58
2024-02-01T08:45:32.301Z,36.30
2024-02-01T08:48:04.639Z,38.19
2024-02-01T08:50:34.742Z,38.93
2024-02-01T08:53:03.574Z,38.83
2024-02-01T08:55:32.486Z,39.22
2024-02-01T08:58:10.518Z,38.79
2024-02-01T09:00:44.271Z,38.03
2024-02-01T09:03:31.064Z,37.57
2024-02-01T09:06:10.775Z,36.54
2024-02-01T09:08:41.393Z,36.24
2024-02-01T09:11:13.766Z,34.95
2024-02-01T09:13:48.832Z,34.60
2024-02-01T09:16:32.200Z,33.71
2024-02-01T09:19:01.949Z,32.75
2024-02-01T09:21:30.696Z,32.42
2024-02-01T09:23:59.950Z,31.82
2024-02-01T09:26:28.838Z,31.94
2024-02-01T09:28:57.341Z,31.33
2024-02-01T09:31:25.745Z,31.25
2024-02-01T09:33:54.449Z,33.55
2024-02-01T09:36:22.970Z,35.10
2024-02-01T09:38:51.631Z,36.11
2024-02-01T09:41:22.302Z,36.15
2024-02-01T09:43:52.498Z,37.41
2024-02-01T09:46:24.573Z,38.44
2024-02-01T09:48:56.620Z,38.65
2024-02-01T09:51:25.320Z,39.80
2024-02-01T09:53:53.847Z,41.33
2024-02-01T09:56:27.335Z,42.36
2024-02-01T09:58:59.531Z,42.51
2024-02-01T10:01:29.659Z,44.47
2024-02-01T10:03:58.509Z,44.54
2024-02-01T10:06:27.277Z,45.39
2024-02-01T10:08:55.822Z,46.12
2024-02-01T10:11:24.432Z,46.89
2024-02-01T10:13:52.895Z,47.09
2024-02-01T10:16:22.174Z,48.19
2024-02-01T10:18:55.814Z,48.58
2024-02-01T10:21:35.631Z,48.93
2024-02-01T10:24:09.617Z,49.53
2024-02-01T10:26:39.254Z,49.73
2024-02-01T10:29:08.688Z,49.39
2024-02-01T10:31:41.667Z,50.87
2024-02-01T10:34:13.040Z,50.91
2024-02-01T10:36:44.567Z,49.77
2024-02-01T10:39:20.217Z,48.73
2024-02-01T10:41:55.780Z,49.16
2024-02-01T10:44:35.153Z,48.50
2024-02-01T10:47:14.278Z,45.75
2024-02-01T10:49:54.451Z,43.55
2024-02-01T10:52:23.604Z,41.33
2024-02-01T10:54:54.706Z,39.37
2024-02-01T10:57:24.128Z,37.50
2024-02-01T10:59:54.412Z,36.65
2024-02-01T11:02:24.137Z,34.91
2024-02-01T11:04:55.898Z,34.94
2024-02-01T11:07:29.336Z,35.10
2024-02-01T11:10:00.032Z,35.21
2024-02-01T11:12:28.523Z,34.72
2024-02-01T11:14:58.744Z,36.03
2024-02-01T11:17:28.017Z,37.17
2024-02-01T11:19:57.005Z,38.36
2024-02-01T11:22:29.966Z,39.10
2024-02-01T11:25:07.788Z,40.33
2024-02-01T11:27:38.564Z,40.76
2024-02-01T11:30:25.980Z,41.79
2024-02-01T11:32:54.719Z,42.57
2024-02-01T11:35:26.111Z,42.85
2024-02-01T11:38:08.140Z,43.67
2024-02-01T11:40:38.590Z,44.30
2024-02-01T11:43:10.311Z,45.21
2024-02-01T11:45:39.641Z,45.68
2024-02-01T11:48:16.572Z,46.49
2024-02-01T11:50:45.140Z,46.97
2024-02-01T11:53:14.051Z,47.49
2024-02-01T11:55:43.314Z,48.37
2024-02-01T11:58:13.983Z,47.48
2024-02-01T12:00:56.532Z,48.08
2024-02-01T12:03:34.669Z,49.13
2024-02-01T12:06:03.652Z,49.62
2024-02-01T12:08:35.307Z,49.68
2024-02-01T12:11:06.711Z,50.86
2024-02-01T12:13:35.369Z,51.16
2024-02-01T12:16:06.168Z,51.87
2024-02-01T12:18:34.886Z,51.23
2024-02-01T12:21:10.566Z,52.65
2024-02-01T12:23:38.824Z,52.87
2024-02-01T12:26:07.179Z,53.34
2024-02-01T12:28:36.880Z,53.41
2024-02-01T12:31:06.319Z,54.49
2024-02-01T12:33:35.110Z,54.16
2024-02-01T12:36:04.031Z,53.97
2024-02-01T12:38:42.861Z,53.00
2024-02-01T12:41:16.046Z,53.61
2024-02-01T12:43:46.289Z,52.24
2024-02-01T12:46:14.650Z,53.28
2024-02-01T12:48:43.206Z,52.65
2024-02-01T12:51:11.750Z,53.17
2024-02-01T12:53:40.318Z,53.22
2024-02-01T12:56:10.852Z,53.45
2024-02-01T12:58:41.716Z,52.96
2024-02-01T13:01:10.174Z,52.72
2024-02-01T13:03:39.167Z,53.41
2024-02-01T13:06:11.449Z,53.08
2024-02-01T13:08:43.794Z,54.37
2024-02-01T13:11:13.068Z,54.38
2024-02-01T13:13:42.298Z,54.78
2024-02-01T13:16:16.288Z,54.88
2024-02-01T13:18:44.794Z,55.89
2024-02-01T13:21:13.925Z,56.88
2024-02-01T13:23:42.359Z,56.52
2024-02-01T13:26:13.613Z,58.04
2024-02-01T13:28:42.676Z,58.91
2024-02-01T13:31:11.006Z,58.14
2024-02-01T13:33:40.320Z,59.29
2024-02-01T13:36:10.823Z,59.04
2024-02-01T13:38:39.653Z,59.07
2024-02-01T13:41:08.376Z,59.05
2024-02-01T13:43:37.154Z,59.79
2024-02-01T13:46:05.509Z,59.44
2024-02-01T13:48:34.524Z,59.98
2024-02-01T13:51:05.224Z,59.85
2024-02-01T13:53:33.668Z,60.06
2024-02-01T13:56:02.268Z,59.01
2024-02-01T13:58:32.118Z,59.97
2024-02-01T14:01:00.676Z,58.99
2024-02-01T14:03:29.271Z,60.69
2024-02-01T14:05:58.677Z,59.68
2024-02-01T14:08:28.464Z,60.90
2024-02-01T14:10:56.954Z,60.61
2024-02-01T14:13:25.944Z,60.92
2024-02-01T14:15:54.291Z,61.49
2024-02-01T14:18:24.908Z,61.92
2024-02-01T14:20:53.653Z,62.17
2024-02-01T14:23:24.304Z,62.33
2024-02-01T14:25:52.691Z,61.53
2024-02-01T14:28:20.941Z,62.13
2024-02-01T14:30:49.703Z,62.73
2024-02-01T14:33:19.169Z,63.48
2024-02-01T14:35:48.457Z,62.79
2024-02-01T14:38:16.649Z,63.77
2024-02-01T14:40:45.228Z,65.10
2024-02-01T14:43:13.745Z,64.72
2024-02-01T14:45:42.807Z,65.37
2024-02-01T14:48:12.623Z,65.49
2024-02-01T14:50:41.132Z,67.22
2024-02-01T14:53:09.639Z,65.88
2024-02-01T14:55:37.886Z,66.72
2024-02-01T14:58:09.152Z,67.51
2024-02-01T15:00:39.389Z,66.28
2024-02-01T15:03:08.477Z,66.54
2024-02-01T15:05:38.804Z,67.39
2024-02-01T15:08:07.450Z,67.18
2024-02-01T15:10:35.807Z,67.40
2024-02-01T15:13:04.479Z,68.08
2024-02-01T15:15:35.462Z,66.64
2024-02-01T15:18:04.730Z,66.44
2024-02-01T15:20:36.510Z,66.24
2024-02-01T15:23:05.579Z,67.00
2024-02-01T15:25:41.592Z,67.88
2024-02-01T15:28:14.774Z,67.09
2024-02-01T15:30:49.932Z,67.65
2024-02-01T15:33:23.590Z,67.27
2024-02-01T15:35:52.328Z,66.90
2024-02-01T15:38:21.010Z,66.97
2024-02-01T15:40:50.394Z,67.86
2024-02-01T15:43:18.676Z,68.30
2024-02-01T15:45:51.314Z,67.43
2024-02-01T15:48:20.326Z,67.62
2024-02-01T15:50:49.469Z,68.00
2024-02-01T15:53:20.115Z,68.49
2024-02-01T15:55:48.619Z,68.83
2024-02-01T15:58:16.995Z,68.53
2024-02-01T16:00:46.216Z,68.80
2024-02-01T16:03:14.746Z,68.61
2024-02-01T16:06:00.583Z,68.95
2024-02-01T16:08:29.825Z,69.21
2024-02-01T16:11:02.625Z,68.63
2024-02-01T16:13:41.965Z,68.71
2024-02-01T16:16:24.041Z,68.52
2024-02-01T16:18:52.815Z,68.48
2024-02-01T16:21:22.810Z,67.90
2024-02-01T16:23:51.354Z,68.65
2024-02-01T16:26:19.997Z,69.81
2024-02-01T16:28:49.029Z,69.08
2024-02-01T16:31:22.343Z,69.39
2024-02-01T16:34:26.334Z,69.45
2024-02-01T16:36:58.767Z,69.41
2024-02-01T16:39:52.026Z,68.67
2024-02-01T16:42:20.416Z,69.11
2024-02-01T16:44:54.505Z,68.68
2024-02-01T16:47:29.649Z,67.66
2024-02-01T16:50:04.741Z,66.93
2024-02-01T16:53:05.737Z,68.76
2024-02-01T16:55:56.006Z,69.53
2024-02-01T16:58:50.444Z,68.67
2024-02-01T17:01:44.890Z,67.64
2024-02-01T17:04:26.148Z,68.46
2024-02-01T17:06:56.297Z,69.28
2024-02-01T17:09:27.590Z,68.95
2024-02-01T17:11:58.200Z,69.64
2024-02-01T17:14:33.064Z,69.33
2024-02-01T17:17:27.752Z,69.54
2024-02-01T17:19:56.189Z,69.72
2024-02-01T17:22:31.995Z,69.26
2024-02-01T17:25:00.504Z,68.68
2024-02-01T17:27:34.887Z,69.23
2024-02-01T17:30:08.488Z,69.41
2024-02-01T17:32:39.545Z,69.31
2024-02-01T17:35:10.576Z,69.24
2024-02-01T17:37:41.029Z,68.71
2024-02-01T17:40:15.092Z,68.65
2024-02-01T17:42:51.700Z,68.66
2024-02-01T17:45:30.885Z,68.34
2024-02-01T17:48:13.628Z,68.47
2024-02-01T17:50:43.768Z,68.99
2024-02-01T17:53:12.515Z,69.69
2024-02-01T17:55:49.965Z,68.42
2024-02-01T17:58:38.991Z,69.31
2024-02-01T18:01:20.185Z,69.03
2024-02-01T18:03:53.072Z,69.11
2024-02-01T18:06:27.243Z,68.63
2024-02-01T18:08:55.723Z,68.57
2024-02-01T18:11:24.196Z,68.03
2024-02-01T18:13:52.570Z,69.24
2024-02-01T18:16:26.640Z,68.56
2024-02-01T18:19:18.826Z,68.86
2024-02-01T18:21:48.228Z,69.61
2024-02-01T18:24:31.731Z,69.28
2024-02-01T18:27:01.224Z,69.47
2024-02-01T18:29:51.344Z,70.14
2024-02-01T18:32:20.851Z,69.93
2024-02-01T18:34:50.264Z,69.66
2024-02-01T18:37:23.005Z,70.66
2024-02-01T18:39:51.568Z,69.95
2024-02-01T18:42:53.280Z,69.21
2024-02-01T18:45:30.774Z,69.57
2024-02-01T18:47:59.771Z,70.02
2024-02-01T18:50:40.148Z,69.70
2024-02-01T18:53:22.905Z,70.67
2024-02-01T18:55:51.581Z,70.61
2024-02-01T18:58:41.211Z,71.75
2024-02-01T19:01:27.947Z,70.73
2024-02-01T19:04:10.521Z,71.40
2024-02-01T19:06:40.951Z,71.49
2024-02-01T19:09:21.971Z,70.81
2024-02-01T19:12:13.093Z,70.03
2024-02-01T19:14:54.712Z,71.17
2024-02-01T19:17:38.173Z,70.29
2024-02-01T19:20:12.095Z,70.15
2024-02-01T19:22:42.444Z,71.09
2024-02-01T19:25:15.893Z,70.32
2024-02-01T19:27:45.225Z,70.93
2024-02-01T19:30:40.138Z,70.55
2024-02-01T19:33:15.065Z,70.58
2024-02-01T19:35:44.852Z,71.39
2024-02-01T19:38:19.869Z,70.84
2024-02-01T19:40:48.801Z,71.20
2024-02-01T19:43:23.240Z,70.42
2024-02-01T19:45:51.714Z,71.60
2024-02-01T19:48:20.651Z,72.04
2024-02-01T19:50:49.388Z,71.01
2024-02-01T19:53:18.912Z,71.73
2024-02-01T19:55:47.357Z,70.55
2024-02-01T19:58:16.541Z,70.18
2024-02-01T20:00:44.881Z,71.80
2024-02-01T20:03:15.820Z,72.84
2024-02-01T20:05:47.118Z,72.36
2024-02-01T20:08:15.499Z,72.21
2024-02-01T20:10:43.836Z,72.22
2024-02-01T20:13:12.432Z,73.12
2024-02-01T20:15:41.796Z,71.82
2024-02-01T20:18:10.842Z,73.96
2024-02-01T20:20:39.670Z,71.69
2024-02-01T20:23:08.647Z,72.37
2024-02-01T20:25:37.016Z,73.28
2024-02-01T20:28:06.326Z,73.05
2024-02-01T20:30:34.917Z,73.53
2024-02-01T20:33:04.190Z,74.24
2024-02-01T20:35:36.768Z,74.85
2024-02-01T20:38:09.856Z,74.88
2024-02-01T20:40:40.626Z,75.21
2024-02-01T20:43:20.052Z,73.60
2024-02-01T20:45:57.473Z,72.91
2024-02-01T20:48:47.007Z,74.11
2024-02-01T20:51:59.245Z,74.87
2024-02-01T20:55:07.152Z,74.76
2024-02-01T20:57:38.330Z,75.03
2024-02-01T21:00:27.855Z,75.33
2024-02-01T21:03:09.293Z,74.06
2024-02-01T21:05:59.342Z,73.24
2024-02-01T21:08:35.922Z,75.24
2024-02-01T21:11:32.442Z,74.49
2024-02-01T21:14:00.837Z,73.33
2024-02-01T21:16:53.123Z,73.43
2024-02-01T21:19:22.764Z,74.46
2024-02-01T21:21:52.471Z,74.45
2024-02-01T21:24:21.250Z,75.84
2024-02-01T21:26:49.660Z,75.29
2024-02-01T21:29:22.310Z,75.20
2024-02-01T21:31:50.749Z,75.18
2024-02-01T21:34:21.388Z,75.08
2024-02-01T21:36:56.271Z,75.74
2024-02-01T21:39:58.259Z,75.43
2024-02-01T21:42:31.491Z,75.75
2024-02-01T21:45:04.527Z,75.87
2024-02-01T21:47:33.077Z,75.77
2024-02-01T21:50:01.938Z,75.41
2024-02-01T21:52:31.453Z,75.32
2024-02-01T21:54:59.720Z,74.88
2024-02-01T21:57:28.355Z,74.58
2024-02-01T21:59:59.325Z,75.36
2024-02-01T22:02:27.733Z,75.53
2024-02-01T22:04:56.116Z,75.20
2024-02-01T22:07:25.190Z,75.41
2024-02-01T22:09:53.637Z,74.55
2024-02-01T22:12:21.959Z,75.29
2024-02-01T22:14:50.458Z,76.16
2024-02-01T22:17:18.800Z,75.52
2024-02-01T22:19:47.441Z,76.15
2024-02-01T22:22:15.927Z,77.99
2024-02-01T22:24:45.911Z,78.84
2024-02-01T22:27:14.766Z,79.00
2024-02-01T22:29:43.187Z,79.61
2024-02-01T22:32:11.504Z,78.51
2024-02-01T22:34:39.970Z,78.28
2024-02-01T22:37:08.556Z,79.12
2024-02-01T22:39:36.988Z,80.71
2024-02-01T22:42:08.086Z,79.69
2024-02-01T22:44:37.575Z,79.81
2024-02-01T22:47:06.273Z,79.61
2024-02-01T22:49:34.972Z,80.18
2024-02-01T22:52:03.895Z,81.68
2024-02-01T22:54:32.299Z,80.62
2024-02-01T22:57:00.734Z,79.97
2024-02-01T22:59:29.683Z,79.77
2024-02-01T23:01:58.770Z,79.96
2024-02-01T23:04:27.072Z,79.40
2024-02-01T23:06:55.607Z,80.03
2024-02-01T23:09:24.221Z,79.71
2024-02-01T23:11:52.942Z,79.43
2024-02-01T23:14:21.281Z,80.35
2024-02-01T23:16:49.640Z,80.77
2024-02-01T23:19:18.021Z,80.56
2024-02-01T23:21:47.049Z,80.43
2024-02-01T23:24:15.979Z,79.56
2024-02-01T23:26:44.362Z,79.86
2024-02-01T23:29:12.793Z,79.83
2024-02-01T23:31:41.387Z,79.68
2024-02-01T23:34:10.408Z,78.56
2024-02-01T23:36:39.058Z,79.28
2024-02-01T23:39:08.821Z,79.40
2024-02-01T23:41:38.174Z,79.32
2024-02-01T23:44:06.638Z,79.57
2024-02-01T23:46:35.469Z,79.25
2024-02-01T23:49:04.146Z,79.45
2024-02-01T23:51:32.796Z,79.94
2024-02-01T23:54:01.906Z,78.87
2024-02-01T23:56:30.253Z,78.68
2024-02-01T23:58:58.587Z,79.03
